Kline, South Carolina
Current Conditions -  °F | °C
As of 2:15 PM on Sunday 23 Nov 2014 (Local Time) from KBNL Reporting Station
Drizzle Drizzle  
Wind Chill: 17°   Ceiling: 500
Heat Index: 17°   Visibility: NA
Dew Point: 17°   Wind: 8mph
Humidity: 100%   Direction: 130°SE
Pressure: 29.91"   Gusts: NA
Location:  33.2109°N, 81.3471°W
Report Text: KBNL 231915Z AUTO 13007KT -DZ OVC005 17/17 A2991 RMK AO2 P0001
Loading
Personal Weather Stations






























Interactive Weather Map New forecast layout! Learn more

10-Day Weather Forecast

Advertisements
Track Severe Weather on mobile